sensor_id;sensor_type;location;lat;lon;timestamp;P1;durP1;ratioP1;P2;durP2;ratioP2
6007;SDS011;3032;49.484;11.112;2022-10-31T00:01:19;30.33;;;16.60;;
6007;SDS011;3032;49.484;11.112;2022-10-31T00:03:48;22.10;;;14.05;;
6007;SDS011;3032;49.484;11.112;2022-10-31T00:06:14;24.60;;;16.37;;
6007;SDS011;3032;49.484;11.112;2022-10-31T00:08:42;30.60;;;16.65;;
6007;SDS011;3032;49.484;11.112;2022-10-31T00:11:09;26.27;;;17.23;;
6007;SDS011;3032;49.484;11.112;2022-10-31T00:13:35;32.85;;;18.35;;
6007;SDS011;3032;49.484;11.112;2022-10-31T00:16:01;36.43;;;17.63;;
6007;SDS011;3032;49.484;11.112;2022-10-31T00:18:26;38.60;;;21.90;;
6007;SDS011;3032;49.484;11.112;2022-10-31T00:20:58;32.70;;;20.93;;
6007;SDS011;3032;49.484;11.112;2022-10-31T00:23:25;25.92;;;17.40;;
6007;SDS011;3032;49.484;11.112;2022-10-31T00:25:51;31.17;;;16.90;;
6007;SDS011;3032;49.484;11.112;2022-10-31T00:28:16;21.07;;;12.93;;
6007;SDS011;3032;49.484;11.112;2022-10-31T00:30:42;29.20;;;16.80;;
6007;SDS011;3032;49.484;11.112;2022-10-31T00:33:07;30.80;;;16.70;;
6007;SDS011;3032;49.484;11.112;2022-10-31T00:35:33;28.60;;;16.27;;
6007;SDS011;3032;49.484;11.112;2022-10-31T00:37:58;25.33;;;15.30;;
6007;SDS011;3032;49.484;11.112;2022-10-31T00:40:24;22.30;;;14.73;;
6007;SDS011;3032;49.484;11.112;2022-10-31T00:42:49;23.80;;;14.77;;
6007;SDS011;3032;49.484;11.112;2022-10-31T00:45:15;22.47;;;15.70;;
6007;SDS011;3032;49.484;11.112;2022-10-31T00:47:41;23.93;;;15.10;;
6007;SDS011;3032;49.484;11.112;2022-10-31T00:50:06;26.60;;;14.93;;
6007;SDS011;3032;49.484;11.112;2022-10-31T00:52:33;20.33;;;14.40;;
6007;SDS011;3032;49.484;11.112;2022-10-31T00:54:59;26.37;;;15.67;;
6007;SDS011;3032;49.484;11.112;2022-10-31T00:57:24;26.20;;;16.43;;
6007;SDS011;3032;49.484;11.112;2022-10-31T00:59:50;24.07;;;13.30;;
6007;SDS011;3032;49.484;11.112;2022-10-31T01:02:15;22.23;;;12.83;;
6007;SDS011;3032;49.484;11.112;2022-10-31T01:04:41;28.47;;;14.80;;
6007;SDS011;3032;49.484;11.112;2022-10-31T01:07:06;21.73;;;13.70;;
6007;SDS011;3032;49.484;11.112;2022-10-31T01:09:32;26.23;;;16.20;;
6007;SDS011;3032;49.484;11.112;2022-10-31T01:11:57;20.00;;;12.20;;
6007;SDS011;3032;49.484;11.112;2022-10-31T01:14:23;22.33;;;13.20;;
6007;SDS011;3032;49.484;11.112;2022-10-31T01:16:49;25.90;;;15.17;;
6007;SDS011;3032;49.484;11.112;2022-10-31T01:19:14;36.53;;;17.00;;
6007;SDS011;3032;49.484;11.112;2022-10-31T01:21:40;20.30;;;12.40;;
6007;SDS011;3032;49.484;11.112;2022-10-31T01:24:05;27.20;;;14.33;;
6007;SDS011;3032;49.484;11.112;2022-10-31T01:26:32;22.83;;;15.40;;
6007;SDS011;3032;49.484;11.112;2022-10-31T01:28:59;27.65;;;15.45;;
6007;SDS011;3032;49.484;11.112;2022-10-31T01:31:27;27.98;;;15.40;;
6007;SDS011;3032;49.484;11.112;2022-10-31T01:33:54;29.30;;;15.48;;
6007;SDS011;3032;49.484;11.112;2022-10-31T01:36:22;27.33;;;17.00;;
6007;SDS011;3032;49.484;11.112;2022-10-31T01:38:53;31.45;;;16.20;;
6007;SDS011;3032;49.484;11.112;2022-10-31T01:41:21;21.10;;;15.38;;
6007;SDS011;3032;49.484;11.112;2022-10-31T01:43:51;26.42;;;15.38;;
6007;SDS011;3032;49.484;11.112;2022-10-31T01:46:23;25.05;;;15.18;;
6007;SDS011;3032;49.484;11.112;2022-10-31T01:48:57;39.85;;;19.58;;
6007;SDS011;3032;49.484;11.112;2022-10-31T01:51:32;29.73;;;16.08;;
6007;SDS011;3032;49.484;11.112;2022-10-31T01:54:01;22.65;;;13.50;;
6007;SDS011;3032;49.484;11.112;2022-10-31T01:56:31;29.65;;;17.58;;
6007;SDS011;3032;49.484;11.112;2022-10-31T01:59:01;33.47;;;20.80;;
6007;SDS011;3032;49.484;11.112;2022-10-31T02:01:29;22.70;;;14.70;;
6007;SDS011;3032;49.484;11.112;2022-10-31T02:03:55;21.90;;;13.47;;
6007;SDS011;3032;49.484;11.112;2022-10-31T02:06:26;39.20;;;19.90;;
6007;SDS011;3032;49.484;11.112;2022-10-31T02:09:12;36.40;;;17.45;;
6007;SDS011;3032;49.484;11.112;2022-10-31T02:11:39;30.83;;;17.17;;
6007;SDS011;3032;49.484;11.112;2022-10-31T02:14:07;25.08;;;14.93;;
6007;SDS011;3032;49.484;11.112;2022-10-31T02:16:32;28.20;;;19.00;;
6007;SDS011;3032;49.484;11.112;2022-10-31T02:18:58;35.33;;;19.27;;
6007;SDS011;3032;49.484;11.112;2022-10-31T02:26:41;30.48;;;16.25;;
6007;SDS011;3032;49.484;11.112;2022-10-31T02:29:37;28.75;;;16.17;;
6007;SDS011;3032;49.484;11.112;2022-10-31T02:37:37;23.23;;;15.27;;
6007;SDS011;3032;49.484;11.112;2022-10-31T02:40:22;37.00;;;16.45;;
6007;SDS011;3032;49.484;11.112;2022-10-31T02:43:02;27.48;;;13.45;;
6007;SDS011;3032;49.484;11.112;2022-10-31T02:48:36;31.67;;;16.95;;
6007;SDS011;3032;49.484;11.112;2022-10-31T02:51:04;27.40;;;15.27;;
6007;SDS011;3032;49.484;11.112;2022-10-31T02:53:33;28.95;;;15.90;;
6007;SDS011;3032;49.484;11.112;2022-10-31T02:58:29;25.88;;;15.30;;
6007;SDS011;3032;49.484;11.112;2022-10-31T03:03:36;25.80;;;15.13;;
6007;SDS011;3032;49.484;11.112;2022-10-31T03:06:23;26.38;;;15.48;;
6007;SDS011;3032;49.484;11.112;2022-10-31T03:09:11;24.75;;;14.45;;
6007;SDS011;3032;49.484;11.112;2022-10-31T03:14:42;22.60;;;14.35;;
6007;SDS011;3032;49.484;11.112;2022-10-31T03:17:20;30.60;;;17.25;;
6007;SDS011;3032;49.484;11.112;2022-10-31T03:20:09;34.05;;;16.55;;
6007;SDS011;3032;49.484;11.112;2022-10-31T03:22:36;27.60;;;16.48;;
6007;SDS011;3032;49.484;11.112;2022-10-31T03:25:04;26.42;;;15.95;;
6007;SDS011;3032;49.484;11.112;2022-10-31T03:27:32;31.80;;;16.98;;
6007;SDS011;3032;49.484;11.112;2022-10-31T03:30:01;35.78;;;17.98;;
6007;SDS011;3032;49.484;11.112;2022-10-31T03:32:34;28.02;;;17.10;;
6007;SDS011;3032;49.484;11.112;2022-10-31T03:35:07;24.70;;;14.98;;
6007;SDS011;3032;49.484;11.112;2022-10-31T03:37:34;28.20;;;16.85;;
6007;SDS011;3032;49.484;11.112;2022-10-31T03:40:02;28.15;;;15.65;;
6007;SDS011;3032;49.484;11.112;2022-10-31T03:42:33;16.65;;;12.88;;
6007;SDS011;3032;49.484;11.112;2022-10-31T03:47:38;27.77;;;16.20;;
6007;SDS011;3032;49.484;11.112;2022-10-31T03:50:05;29.02;;;17.90;;
6007;SDS011;3032;49.484;11.112;2022-10-31T03:55:19;21.63;;;13.18;;
6007;SDS011;3032;49.484;11.112;2022-10-31T04:00:32;26.25;;;15.15;;
6007;SDS011;3032;49.484;11.112;2022-10-31T04:03:00;38.58;;;15.45;;
6007;SDS011;3032;49.484;11.112;2022-10-31T04:05:40;24.92;;;15.77;;
6007;SDS011;3032;49.484;11.112;2022-10-31T04:08:10;25.67;;;16.75;;
6007;SDS011;3032;49.484;11.112;2022-10-31T04:10:39;24.65;;;14.93;;
6007;SDS011;3032;49.484;11.112;2022-10-31T04:13:08;21.17;;;15.05;;
6007;SDS011;3032;49.484;11.112;2022-10-31T04:15:37;24.48;;;15.15;;
6007;SDS011;3032;49.484;11.112;2022-10-31T04:18:04;28.30;;;16.63;;
6007;SDS011;3032;49.484;11.112;2022-10-31T04:20:34;34.55;;;18.50;;
6007;SDS011;3032;49.484;11.112;2022-10-31T04:23:02;21.60;;;14.00;;
6007;SDS011;3032;49.484;11.112;2022-10-31T04:25:28;25.35;;;14.15;;
6007;SDS011;3032;49.484;11.112;2022-10-31T04:27:54;22.63;;;14.27;;
6007;SDS011;3032;49.484;11.112;2022-10-31T04:30:20;30.53;;;13.57;;
6007;SDS011;3032;49.484;11.112;2022-10-31T04:32:46;22.77;;;14.47;;
6007;SDS011;3032;49.484;11.112;2022-10-31T04:35:11;21.40;;;12.93;;
6007;SDS011;3032;49.484;11.112;2022-10-31T04:37:37;27.10;;;14.77;;
6007;SDS011;3032;49.484;11.112;2022-10-31T04:40:03;23.13;;;16.00;;
6007;SDS011;3032;49.484;11.112;2022-10-31T04:42:29;20.50;;;11.52;;
6007;SDS011;3032;49.484;11.112;2022-10-31T04:44:55;18.10;;;12.18;;
6007;SDS011;3032;49.484;11.112;2022-10-31T04:47:21;26.10;;;13.70;;
6007;SDS011;3032;49.484;11.112;2022-10-31T04:49:46;29.40;;;13.90;;
6007;SDS011;3032;49.484;11.112;2022-10-31T04:52:12;24.07;;;13.30;;
6007;SDS011;3032;49.484;11.112;2022-10-31T04:54:38;23.45;;;12.15;;
6007;SDS011;3032;49.484;11.112;2022-10-31T04:57:03;20.57;;;14.30;;
6007;SDS011;3032;49.484;11.112;2022-10-31T04:59:29;26.47;;;13.77;;
6007;SDS011;3032;49.484;11.112;2022-10-31T05:01:54;24.30;;;12.87;;
6007;SDS011;3032;49.484;11.112;2022-10-31T05:04:20;25.10;;;14.20;;
6007;SDS011;3032;49.484;11.112;2022-10-31T05:06:46;23.97;;;14.40;;
6007;SDS011;3032;49.484;11.112;2022-10-31T05:09:11;27.93;;;14.50;;
6007;SDS011;3032;49.484;11.112;2022-10-31T05:11:37;21.90;;;14.33;;
6007;SDS011;3032;49.484;11.112;2022-10-31T05:14:02;30.97;;;14.23;;
6007;SDS011;3032;49.484;11.112;2022-10-31T05:16:28;27.83;;;13.53;;
6007;SDS011;3032;49.484;11.112;2022-10-31T05:18:53;20.30;;;13.40;;
6007;SDS011;3032;49.484;11.112;2022-10-31T05:21:19;24.97;;;12.90;;
6007;SDS011;3032;49.484;11.112;2022-10-31T05:23:45;20.53;;;12.17;;
6007;SDS011;3032;49.484;11.112;2022-10-31T05:26:10;25.03;;;13.33;;
6007;SDS011;3032;49.484;11.112;2022-10-31T05:28:36;19.77;;;12.73;;
6007;SDS011;3032;49.484;11.112;2022-10-31T05:31:01;25.10;;;13.80;;
6007;SDS011;3032;49.484;11.112;2022-10-31T05:33:27;21.03;;;12.77;;
6007;SDS011;3032;49.484;11.112;2022-10-31T05:35:53;19.63;;;11.83;;
6007;SDS011;3032;49.484;11.112;2022-10-31T05:38:18;25.17;;;13.20;;
6007;SDS011;3032;49.484;11.112;2022-10-31T05:40:44;24.83;;;13.43;;
6007;SDS011;3032;49.484;11.112;2022-10-31T05:43:09;30.47;;;12.90;;
6007;SDS011;3032;49.484;11.112;2022-10-31T05:45:35;26.77;;;11.67;;
6007;SDS011;3032;49.484;11.112;2022-10-31T05:48:01;23.80;;;13.57;;
6007;SDS011;3032;49.484;11.112;2022-10-31T05:50:28;18.08;;;13.38;;
6007;SDS011;3032;49.484;11.112;2022-10-31T05:52:56;20.40;;;12.65;;
6007;SDS011;3032;49.484;11.112;2022-10-31T05:55:23;19.67;;;11.38;;
6007;SDS011;3032;49.484;11.112;2022-10-31T05:57:49;15.95;;;11.77;;
6007;SDS011;3032;49.484;11.112;2022-10-31T06:00:15;18.17;;;11.33;;
6007;SDS011;3032;49.484;11.112;2022-10-31T06:02:40;20.40;;;12.50;;
6007;SDS011;3032;49.484;11.112;2022-10-31T06:05:06;17.87;;;12.57;;
6007;SDS011;3032;49.484;11.112;2022-10-31T06:07:33;15.23;;;11.55;;
6007;SDS011;3032;49.484;11.112;2022-10-31T06:09:59;22.73;;;12.63;;
6007;SDS011;3032;49.484;11.112;2022-10-31T06:12:25;24.55;;;13.48;;
6007;SDS011;3032;49.484;11.112;2022-10-31T06:14:51;14.03;;;10.77;;
6007;SDS011;3032;49.484;11.112;2022-10-31T06:17:16;17.83;;;11.27;;
6007;SDS011;3032;49.484;11.112;2022-10-31T06:19:42;16.10;;;9.20;;
6007;SDS011;3032;49.484;11.112;2022-10-31T06:22:07;22.07;;;12.20;;
6007;SDS011;3032;49.484;11.112;2022-10-31T06:24:33;15.10;;;10.00;;
6007;SDS011;3032;49.484;11.112;2022-10-31T06:26:59;24.97;;;10.73;;
6007;SDS011;3032;49.484;11.112;2022-10-31T06:29:24;18.03;;;10.10;;
6007;SDS011;3032;49.484;11.112;2022-10-31T06:31:53;17.80;;;9.50;;
6007;SDS011;3032;49.484;11.112;2022-10-31T06:34:19;19.65;;;10.15;;
6007;SDS011;3032;49.484;11.112;2022-10-31T06:36:45;15.63;;;11.13;;
6007;SDS011;3032;49.484;11.112;2022-10-31T06:39:11;23.70;;;10.82;;
6007;SDS011;3032;49.484;11.112;2022-10-31T06:41:37;20.50;;;10.47;;
6007;SDS011;3032;49.484;11.112;2022-10-31T06:44:04;20.65;;;10.20;;
6007;SDS011;3032;49.484;11.112;2022-10-31T06:46:30;14.27;;;9.63;;
6007;SDS011;3032;49.484;11.112;2022-10-31T06:48:56;26.90;;;10.60;;
6007;SDS011;3032;49.484;11.112;2022-10-31T06:51:21;18.37;;;10.30;;
6007;SDS011;3032;49.484;11.112;2022-10-31T06:53:47;21.70;;;11.57;;
6007;SDS011;3032;49.484;11.112;2022-10-31T06:56:12;14.60;;;9.43;;
6007;SDS011;3032;49.484;11.112;2022-10-31T06:58:38;12.43;;;9.77;;
6007;SDS011;3032;49.484;11.112;2022-10-31T07:01:03;25.80;;;11.50;;
6007;SDS011;3032;49.484;11.112;2022-10-31T07:03:29;12.27;;;9.00;;
6007;SDS011;3032;49.484;11.112;2022-10-31T07:05:55;15.10;;;9.10;;
6007;SDS011;3032;49.484;11.112;2022-10-31T07:08:21;25.80;;;10.88;;
6007;SDS011;3032;49.484;11.112;2022-10-31T07:10:55;18.33;;;9.18;;
6007;SDS011;3032;49.484;11.112;2022-10-31T07:13:21;15.65;;;10.10;;
6007;SDS011;3032;49.484;11.112;2022-10-31T07:15:50;23.42;;;9.38;;
6007;SDS011;3032;49.484;11.112;2022-10-31T07:18:17;14.98;;;8.73;;
6007;SDS011;3032;49.484;11.112;2022-10-31T07:20:43;9.33;;;7.57;;
6007;SDS011;3032;49.484;11.112;2022-10-31T07:23:09;19.50;;;9.53;;
6007;SDS011;3032;49.484;11.112;2022-10-31T07:25:35;118.20;;;17.48;;
6007;SDS011;3032;49.484;11.112;2022-10-31T07:28:02;44.10;;;10.77;;
6007;SDS011;3032;49.484;11.112;2022-10-31T07:30:27;19.33;;;9.13;;
6007;SDS011;3032;49.484;11.112;2022-10-31T07:32:53;13.53;;;7.73;;
6007;SDS011;3032;49.484;11.112;2022-10-31T07:35:19;14.07;;;7.80;;
6007;SDS011;3032;49.484;11.112;2022-10-31T07:37:49;8.90;;;6.00;;
6007;SDS011;3032;49.484;11.112;2022-10-31T07:40:16;10.70;;;7.27;;
6007;SDS011;3032;49.484;11.112;2022-10-31T07:42:43;8.80;;;6.50;;
6007;SDS011;3032;49.484;11.112;2022-10-31T07:45:10;8.75;;;7.28;;
6007;SDS011;3032;49.484;11.112;2022-10-31T07:47:44;10.32;;;7.30;;
6007;SDS011;3032;49.484;11.112;2022-10-31T07:50:14;8.77;;;6.07;;
6007;SDS011;3032;49.484;11.112;2022-10-31T07:52:44;9.95;;;6.43;;
6007;SDS011;3032;49.484;11.112;2022-10-31T07:55:10;10.20;;;5.68;;
6007;SDS011;3032;49.484;11.112;2022-10-31T07:57:36;10.68;;;6.40;;
6007;SDS011;3032;49.484;11.112;2022-10-31T08:00:05;9.20;;;6.23;;
6007;SDS011;3032;49.484;11.112;2022-10-31T08:02:32;9.85;;;6.38;;
6007;SDS011;3032;49.484;11.112;2022-10-31T08:04:58;9.77;;;6.70;;
6007;SDS011;3032;49.484;11.112;2022-10-31T08:07:24;7.65;;;6.03;;
6007;SDS011;3032;49.484;11.112;2022-10-31T08:09:50;12.35;;;6.60;;
6007;SDS011;3032;49.484;11.112;2022-10-31T08:12:16;11.43;;;7.20;;
6007;SDS011;3032;49.484;11.112;2022-10-31T08:14:42;12.80;;;7.30;;
6007;SDS011;3032;49.484;11.112;2022-10-31T08:17:07;8.33;;;5.80;;
6007;SDS011;3032;49.484;11.112;2022-10-31T08:19:33;9.93;;;6.60;;
6007;SDS011;3032;49.484;11.112;2022-10-31T08:21:58;8.90;;;6.77;;
6007;SDS011;3032;49.484;11.112;2022-10-31T08:24:27;9.80;;;6.07;;
6007;SDS011;3032;49.484;11.112;2022-10-31T08:26:52;8.40;;;6.18;;
6007;SDS011;3032;49.484;11.112;2022-10-31T08:29:18;9.40;;;6.10;;
6007;SDS011;3032;49.484;11.112;2022-10-31T08:31:43;9.43;;;5.90;;
6007;SDS011;3032;49.484;11.112;2022-10-31T08:34:09;8.83;;;6.37;;
6007;SDS011;3032;49.484;11.112;2022-10-31T08:36:35;6.60;;;5.90;;
6007;SDS011;3032;49.484;11.112;2022-10-31T08:39:01;7.43;;;5.87;;
6007;SDS011;3032;49.484;11.112;2022-10-31T08:41:27;12.52;;;7.25;;
6007;SDS011;3032;49.484;11.112;2022-10-31T08:43:52;9.67;;;5.90;;
6007;SDS011;3032;49.484;11.112;2022-10-31T08:46:18;8.60;;;6.63;;
6007;SDS011;3032;49.484;11.112;2022-10-31T08:48:44;12.97;;;7.43;;
6007;SDS011;3032;49.484;11.112;2022-10-31T08:51:09;10.50;;;7.50;;
6007;SDS011;3032;49.484;11.112;2022-10-31T08:53:36;9.68;;;7.65;;
6007;SDS011;3032;49.484;11.112;2022-10-31T08:56:01;12.80;;;6.93;;
6007;SDS011;3032;49.484;11.112;2022-10-31T08:58:27;11.47;;;7.87;;
6007;SDS011;3032;49.484;11.112;2022-10-31T09:00:53;10.50;;;7.40;;
6007;SDS011;3032;49.484;11.112;2022-10-31T09:03:23;11.45;;;8.45;;
6007;SDS011;3032;49.484;11.112;2022-10-31T09:05:50;12.43;;;7.57;;
6007;SDS011;3032;49.484;11.112;2022-10-31T09:08:19;8.52;;;6.78;;
6007;SDS011;3032;49.484;11.112;2022-10-31T09:10:44;10.90;;;6.97;;
6007;SDS011;3032;49.484;11.112;2022-10-31T09:13:11;11.67;;;7.17;;
6007;SDS011;3032;49.484;11.112;2022-10-31T09:15:40;15.95;;;7.70;;
6007;SDS011;3032;49.484;11.112;2022-10-31T09:18:08;15.13;;;8.38;;
6007;SDS011;3032;49.484;11.112;2022-10-31T09:20:37;15.48;;;7.78;;
6007;SDS011;3032;49.484;11.112;2022-10-31T09:23:05;11.35;;;7.45;;
6007;SDS011;3032;49.484;11.112;2022-10-31T09:25:42;14.48;;;7.43;;
6007;SDS011;3032;49.484;11.112;2022-10-31T09:28:09;14.75;;;7.60;;
6007;SDS011;3032;49.484;11.112;2022-10-31T09:30:36;10.60;;;8.00;;
6007;SDS011;3032;49.484;11.112;2022-10-31T09:33:08;11.82;;;8.50;;
6007;SDS011;3032;49.484;11.112;2022-10-31T09:35:35;11.00;;;8.23;;
6007;SDS011;3032;49.484;11.112;2022-10-31T09:38:03;10.20;;;7.75;;
6007;SDS011;3032;49.484;11.112;2022-10-31T09:40:46;13.38;;;8.77;;
6007;SDS011;3032;49.484;11.112;2022-10-31T09:43:25;13.80;;;7.93;;
6007;SDS011;3032;49.484;11.112;2022-10-31T09:51:06;10.20;;;7.72;;
6007;SDS011;3032;49.484;11.112;2022-10-31T09:53:43;12.73;;;8.32;;
6007;SDS011;3032;49.484;11.112;2022-10-31T09:56:21;10.93;;;7.90;;
6007;SDS011;3032;49.484;11.112;2022-10-31T09:58:52;10.85;;;7.15;;
6007;SDS011;3032;49.484;11.112;2022-10-31T10:01:32;11.75;;;7.82;;
6007;SDS011;3032;49.484;11.112;2022-10-31T10:07:19;14.30;;;7.97;;
6007;SDS011;3032;49.484;11.112;2022-10-31T10:09:51;12.35;;;7.57;;
6007;SDS011;3032;49.484;11.112;2022-10-31T10:15:24;13.63;;;7.22;;
6007;SDS011;3032;49.484;11.112;2022-10-31T10:21:05;11.90;;;6.85;;
6007;SDS011;3032;49.484;11.112;2022-10-31T10:26:31;7.35;;;5.93;;
6007;SDS011;3032;49.484;11.112;2022-10-31T10:29:02;10.77;;;6.70;;
6007;SDS011;3032;49.484;11.112;2022-10-31T10:31:51;10.80;;;6.22;;
6007;SDS011;3032;49.484;11.112;2022-10-31T10:37:43;7.78;;;6.30;;
6007;SDS011;3032;49.484;11.112;2022-10-31T10:40:13;13.60;;;6.38;;
6007;SDS011;3032;49.484;11.112;2022-10-31T10:45:47;13.40;;;7.00;;
6007;SDS011;3032;49.484;11.112;2022-10-31T10:51:43;12.32;;;6.90;;
6007;SDS011;3032;49.484;11.112;2022-10-31T10:57:14;14.38;;;7.32;;
6007;SDS011;3032;49.484;11.112;2022-10-31T10:59:47;11.65;;;6.90;;
6007;SDS011;3032;49.484;11.112;2022-10-31T11:02:22;10.18;;;6.57;;
6007;SDS011;3032;49.484;11.112;2022-10-31T11:04:51;10.65;;;6.60;;
6007;SDS011;3032;49.484;11.112;2022-10-31T11:07:18;12.07;;;8.60;;
6007;SDS011;3032;49.484;11.112;2022-10-31T11:09:44;13.87;;;7.20;;
6007;SDS011;3032;49.484;11.112;2022-10-31T11:12:28;10.57;;;6.80;;
6007;SDS011;3032;49.484;11.112;2022-10-31T11:15:07;8.80;;;6.35;;
6007;SDS011;3032;49.484;11.112;2022-10-31T11:17:47;12.38;;;6.07;;
6007;SDS011;3032;49.484;11.112;2022-10-31T11:22:41;11.57;;;7.30;;
6007;SDS011;3032;49.484;11.112;2022-10-31T11:25:19;12.07;;;7.20;;
6007;SDS011;3032;49.484;11.112;2022-10-31T11:27:46;11.32;;;7.25;;
6007;SDS011;3032;49.484;11.112;2022-10-31T11:30:23;9.02;;;7.10;;
6007;SDS011;3032;49.484;11.112;2022-10-31T11:32:49;9.23;;;7.20;;
6007;SDS011;3032;49.484;11.112;2022-10-31T11:35:17;11.10;;;7.03;;
6007;SDS011;3032;49.484;11.112;2022-10-31T11:37:45;11.02;;;7.82;;
6007;SDS011;3032;49.484;11.112;2022-10-31T11:40:14;14.55;;;7.57;;
6007;SDS011;3032;49.484;11.112;2022-10-31T11:42:48;9.80;;;7.75;;
6007;SDS011;3032;49.484;11.112;2022-10-31T11:45:36;8.98;;;6.97;;
6007;SDS011;3032;49.484;11.112;2022-10-31T11:48:02;14.80;;;7.45;;
6007;SDS011;3032;49.484;11.112;2022-10-31T11:50:39;9.35;;;7.35;;
6007;SDS011;3032;49.484;11.112;2022-10-31T11:53:12;10.60;;;7.05;;
6007;SDS011;3032;49.484;11.112;2022-10-31T11:55:41;9.13;;;7.13;;
6007;SDS011;3032;49.484;11.112;2022-10-31T11:58:21;8.73;;;6.85;;
6007;SDS011;3032;49.484;11.112;2022-10-31T12:00:49;7.75;;;6.95;;
6007;SDS011;3032;49.484;11.112;2022-10-31T12:08:38;15.85;;;6.90;;
6007;SDS011;3032;49.484;11.112;2022-10-31T12:14:15;11.35;;;6.95;;
6007;SDS011;3032;49.484;11.112;2022-10-31T12:21:59;7.60;;;6.80;;
6007;SDS011;3032;49.484;11.112;2022-10-31T12:27:30;7.50;;;6.35;;
6007;SDS011;3032;49.484;11.112;2022-10-31T12:30:17;9.27;;;7.20;;
6007;SDS011;3032;49.484;11.112;2022-10-31T12:33:09;9.70;;;7.40;;
6007;SDS011;3032;49.484;11.112;2022-10-31T12:44:23;10.30;;;7.25;;
6007;SDS011;3032;49.484;11.112;2022-10-31T12:52:22;7.80;;;6.65;;
6007;SDS011;3032;49.484;11.112;2022-10-31T12:55:14;9.43;;;6.95;;
6007;SDS011;3032;49.484;11.112;2022-10-31T12:57:52;10.05;;;6.93;;
6007;SDS011;3032;49.484;11.112;2022-10-31T13:00:22;11.40;;;7.43;;
6007;SDS011;3032;49.484;11.112;2022-10-31T13:05:33;8.70;;;7.60;;
6007;SDS011;3032;49.484;11.112;2022-10-31T13:10:31;10.57;;;7.10;;
6007;SDS011;3032;49.484;11.112;2022-10-31T13:13:13;12.75;;;7.13;;
6007;SDS011;3032;49.484;11.112;2022-10-31T13:15:47;11.63;;;7.50;;
6007;SDS011;3032;49.484;11.112;2022-10-31T13:21:08;13.55;;;7.65;;
6007;SDS011;3032;49.484;11.112;2022-10-31T13:23:40;15.07;;;8.27;;
6007;SDS011;3032;49.484;11.112;2022-10-31T13:26:52;13.88;;;9.07;;
6007;SDS011;3032;49.484;11.112;2022-10-31T13:31:40;12.80;;;8.10;;
6007;SDS011;3032;49.484;11.112;2022-10-31T13:34:10;21.38;;;9.40;;
6007;SDS011;3032;49.484;11.112;2022-10-31T13:39:46;14.13;;;10.25;;
6007;SDS011;3032;49.484;11.112;2022-10-31T13:44:53;13.90;;;10.05;;
6007;SDS011;3032;49.484;11.112;2022-10-31T13:47:23;12.53;;;9.10;;
6007;SDS011;3032;49.484;11.112;2022-10-31T13:49:51;15.60;;;10.07;;
6007;SDS011;3032;49.484;11.112;2022-10-31T13:52:22;18.20;;;9.23;;
6007;SDS011;3032;49.484;11.112;2022-10-31T13:54:50;14.93;;;9.23;;
6007;SDS011;3032;49.484;11.112;2022-10-31T14:02:46;13.75;;;8.80;;
6007;SDS011;3032;49.484;11.112;2022-10-31T14:05:35;12.63;;;9.10;;
6007;SDS011;3032;49.484;11.112;2022-10-31T14:08:03;13.73;;;8.35;;
6007;SDS011;3032;49.484;11.112;2022-10-31T14:10:38;10.45;;;7.93;;
6007;SDS011;3032;49.484;11.112;2022-10-31T14:13:15;12.43;;;7.78;;
6007;SDS011;3032;49.484;11.112;2022-10-31T14:15:54;13.63;;;8.35;;
6007;SDS011;3032;49.484;11.112;2022-10-31T14:18:35;17.65;;;8.43;;
6007;SDS011;3032;49.484;11.112;2022-10-31T14:23:50;9.43;;;7.72;;
6007;SDS011;3032;49.484;11.112;2022-10-31T14:26:29;13.88;;;8.88;;
6007;SDS011;3032;49.484;11.112;2022-10-31T14:28:58;17.15;;;9.18;;
6007;SDS011;3032;49.484;11.112;2022-10-31T14:31:53;21.73;;;8.50;;
6007;SDS011;3032;49.484;11.112;2022-10-31T14:34:34;16.80;;;9.05;;
6007;SDS011;3032;49.484;11.112;2022-10-31T14:42:32;12.35;;;8.50;;
6007;SDS011;3032;49.484;11.112;2022-10-31T14:47:59;13.63;;;8.80;;
6007;SDS011;3032;49.484;11.112;2022-10-31T14:50:41;14.90;;;8.40;;
6007;SDS011;3032;49.484;11.112;2022-10-31T14:55:55;21.23;;;9.48;;
6007;SDS011;3032;49.484;11.112;2022-10-31T14:58:23;15.95;;;10.50;;
6007;SDS011;3032;49.484;11.112;2022-10-31T15:00:54;13.48;;;9.00;;
6007;SDS011;3032;49.484;11.112;2022-10-31T15:03:24;15.90;;;9.70;;
6007;SDS011;3032;49.484;11.112;2022-10-31T15:06:15;11.95;;;9.32;;
6007;SDS011;3032;49.484;11.112;2022-10-31T15:11:14;11.80;;;9.15;;
6007;SDS011;3032;49.484;11.112;2022-10-31T15:13:43;19.60;;;10.15;;
6007;SDS011;3032;49.484;11.112;2022-10-31T15:16:10;17.42;;;10.18;;
6007;SDS011;3032;49.484;11.112;2022-10-31T15:18:39;14.55;;;9.05;;
6007;SDS011;3032;49.484;11.112;2022-10-31T15:21:15;14.45;;;10.35;;
6007;SDS011;3032;49.484;11.112;2022-10-31T15:23:41;17.25;;;10.50;;
6007;SDS011;3032;49.484;11.112;2022-10-31T15:26:11;17.58;;;11.50;;
6007;SDS011;3032;49.484;11.112;2022-10-31T15:28:45;20.55;;;12.65;;
6007;SDS011;3032;49.484;11.112;2022-10-31T15:31:22;16.40;;;11.25;;
6007;SDS011;3032;49.484;11.112;2022-10-31T15:33:47;15.60;;;10.60;;
6007;SDS011;3032;49.484;11.112;2022-10-31T15:36:18;12.75;;;9.43;;
6007;SDS011;3032;49.484;11.112;2022-10-31T15:38:45;22.17;;;10.45;;
6007;SDS011;3032;49.484;11.112;2022-10-31T15:43:48;14.30;;;9.25;;
6007;SDS011;3032;49.484;11.112;2022-10-31T15:46:14;14.83;;;9.90;;
6007;SDS011;3032;49.484;11.112;2022-10-31T15:48:43;18.43;;;11.40;;
6007;SDS011;3032;49.484;11.112;2022-10-31T15:51:11;16.80;;;11.70;;
6007;SDS011;3032;49.484;11.112;2022-10-31T15:56:08;20.13;;;13.68;;
6007;SDS011;3032;49.484;11.112;2022-10-31T15:58:44;15.50;;;11.00;;
6007;SDS011;3032;49.484;11.112;2022-10-31T16:01:29;15.77;;;11.38;;
6007;SDS011;3032;49.484;11.112;2022-10-31T16:04:03;21.77;;;10.88;;
6007;SDS011;3032;49.484;11.112;2022-10-31T16:06:33;14.60;;;11.02;;
6007;SDS011;3032;49.484;11.112;2022-10-31T16:08:59;17.80;;;10.80;;
6007;SDS011;3032;49.484;11.112;2022-10-31T16:14:00;14.43;;;10.95;;
6007;SDS011;3032;49.484;11.112;2022-10-31T16:16:27;15.63;;;11.70;;
6007;SDS011;3032;49.484;11.112;2022-10-31T16:18:54;14.00;;;11.10;;
6007;SDS011;3032;49.484;11.112;2022-10-31T16:21:32;15.85;;;11.30;;
6007;SDS011;3032;49.484;11.112;2022-10-31T16:24:04;17.45;;;10.85;;
6007;SDS011;3032;49.484;11.112;2022-10-31T16:26:48;15.55;;;12.38;;
6007;SDS011;3032;49.484;11.112;2022-10-31T16:29:24;25.08;;;15.90;;
6007;SDS011;3032;49.484;11.112;2022-10-31T16:31:53;36.30;;;20.23;;
6007;SDS011;3032;49.484;11.112;2022-10-31T16:34:20;37.70;;;17.80;;
6007;SDS011;3032;49.484;11.112;2022-10-31T16:36:47;21.23;;;15.90;;
6007;SDS011;3032;49.484;11.112;2022-10-31T16:39:13;25.55;;;16.85;;
6007;SDS011;3032;49.484;11.112;2022-10-31T16:41:42;28.20;;;19.93;;
6007;SDS011;3032;49.484;11.112;2022-10-31T16:44:22;23.80;;;15.80;;
6007;SDS011;3032;49.484;11.112;2022-10-31T16:47:04;29.42;;;23.48;;
6007;SDS011;3032;49.484;11.112;2022-10-31T16:49:38;25.58;;;18.00;;
6007;SDS011;3032;49.484;11.112;2022-10-31T16:52:03;25.87;;;18.83;;
6007;SDS011;3032;49.484;11.112;2022-10-31T16:54:29;30.87;;;20.70;;
6007;SDS011;3032;49.484;11.112;2022-10-31T16:56:55;29.17;;;21.40;;
6007;SDS011;3032;49.484;11.112;2022-10-31T16:59:22;27.83;;;22.00;;
6007;SDS011;3032;49.484;11.112;2022-10-31T17:01:48;28.43;;;21.20;;
6007;SDS011;3032;49.484;11.112;2022-10-31T17:04:14;31.88;;;20.63;;
6007;SDS011;3032;49.484;11.112;2022-10-31T17:06:40;37.97;;;23.80;;
6007;SDS011;3032;49.484;11.112;2022-10-31T17:09:06;30.02;;;20.50;;
6007;SDS011;3032;49.484;11.112;2022-10-31T17:11:32;36.55;;;23.10;;
6007;SDS011;3032;49.484;11.112;2022-10-31T17:13:58;39.60;;;25.02;;